EGJJ

Jersey Airport

Airport
ICAO code
EGJJ
IATA Code
JER
Summary
ICAO Region
EUR
ICAO Territory
Location

Saint Peter, Jersey

Serving
St Hellier
Elevation
277 ft
Coordinates
49° 12' 26" N , 2° 11' 41" W
KCC
Metar
Observation
EGJJ 260150Z AUTO 27016KT 240V300 9999 SCT022/// BKN031/// OVC035/// 14/09 Q1013
Station
Jersey Airport
Date/Time
2022-09-26 01:50:00
Wind direction
270°
Wind speed
16 kts
Lowest cloud amount
scattered clouds
Temperature
14°C
Dew point
9°C
Humidity
71%
QNH
1013 hPa
Weather condition
n/a

The only airport on the Channel Island of Jersey, a self-governing British Crown Dependency.

Runways

Designator Length Width Surface Rops
08/26 1706 46 ASP Yes/Yes

SKYbrary Partners:

Safety knowledge contributed by: